Corpus Christi Naval Air Station/Truax Field
KNGP : rendu visible

Aérodrome :











RETROUVEZ-NOUS SUR...

 
LOGIN :

S'inscrire | Disclaimer

   EN    FR    IT 

 









Légende :    VFR   VFR Marginal   IFR   IFR Intensif   IFR Très Intensif
Visi : 
Plafond : 
>= 8 km
>= 3000ft
5 à 8 km
1000 à 3000 ft
1500m à 5 km
500 à 1000 ft
800 à 1500m
200 à 500 ft
< 800m
< 200 ft
Symboles :   Orages  Brouillard  Fortes neiges  Fortes précipitations  Vent > 20 kt






- Altitude de l'aérodrome : 18 ft


KNGP - Corpus Christi Naval Air Station/Truax Field

DERNIER METAR :
  • 132256Z 16020G23KT 10SM CLR 31/27 A2987 RMK AO2 PK WND 15026/2206 SLP114 T03110267

METARs EXPIRÉS :
  • 132156Z 16020G25KT 10SM CLR 32/27 A2988 RMK AO2 SLP116 T03170267
  • 132056Z 15019KT 10SM CLR 32/27 A2988 RMK AO2 SLP118 T03220267 56012

TAF TAF KNGP
Valide du 13 à 23h jusqu'au 14 à 23h UTC


1323/1423 15020G30KT 9999 FEW020 510003 QNH2984INS
TEMPO 1400/1402 16016G22KT FEW015
BECMG 1402/1404 17014G20KT 9999 SCT010 SCT015 510043 QNH2986INS
TEMPO 1407/1413 19012KT BKN009
BECMG 1413/1415 18015G22KT 9999 SCT015 510043 QNH2990INS
FM141900 15020G27KT 9999 SCT025 SCT250 510004 QBH2978INS AUTOMATED SENSOR METWATCH 1404 TIL 1411 T27/1412Z T33/1420Z FN20042
FIR KZHU / Amérique du Nord



MET'MAP, la Météo Aéronautique d'un coup d'oeil ! - Copyright ORBIFLY Décembre 2007 - Disclaimer

ORBIFLY MET'MAP TEAM :

Programmation & Développement : Alexandra Zaïnal
Sur une idée originale de : Baudouin d'Aumeries
Assistance à la programmation : Marc-Olivier Méhu
Soutien technique & logistique : Manuel Goepfert

Contact : metmap@orbifly.com




SOURCES & CREDITS :

   NOAA       Earth
Advisory